sensor_id;sensor_type;location;lat;lon;timestamp;P1;durP1;ratioP1;P2;durP2;ratioP2
43098;SDS011;28715;51.988;6.020;2022-12-07T00:00:30;25.63;;;16.00;;
43098;SDS011;28715;51.988;6.020;2022-12-07T00:02:55;30.10;;;17.10;;
43098;SDS011;28715;51.988;6.020;2022-12-07T00:05:21;30.63;;;16.20;;
43098;SDS011;28715;51.988;6.020;2022-12-07T00:07:46;24.13;;;15.00;;
43098;SDS011;28715;51.988;6.020;2022-12-07T00:10:12;24.70;;;14.10;;
43098;SDS011;28715;51.988;6.020;2022-12-07T00:12:37;23.13;;;13.83;;
43098;SDS011;28715;51.988;6.020;2022-12-07T00:15:03;23.23;;;14.17;;
43098;SDS011;28715;51.988;6.020;2022-12-07T00:17:29;22.98;;;14.05;;
43098;SDS011;28715;51.988;6.020;2022-12-07T00:19:54;23.80;;;13.23;;
43098;SDS011;28715;51.988;6.020;2022-12-07T00:22:20;24.20;;;14.63;;
43098;SDS011;28715;51.988;6.020;2022-12-07T00:24:45;27.07;;;15.37;;
43098;SDS011;28715;51.988;6.020;2022-12-07T00:27:11;25.40;;;14.83;;
43098;SDS011;28715;51.988;6.020;2022-12-07T00:29:37;26.03;;;13.97;;
43098;SDS011;28715;51.988;6.020;2022-12-07T00:32:02;23.57;;;13.70;;
43098;SDS011;28715;51.988;6.020;2022-12-07T00:34:28;24.92;;;13.88;;
43098;SDS011;28715;51.988;6.020;2022-12-07T00:36:54;20.67;;;12.43;;
43098;SDS011;28715;51.988;6.020;2022-12-07T00:39:20;28.80;;;14.77;;
43098;SDS011;28715;51.988;6.020;2022-12-07T00:41:45;26.67;;;14.00;;
43098;SDS011;28715;51.988;6.020;2022-12-07T00:44:11;26.40;;;15.27;;
43098;SDS011;28715;51.988;6.020;2022-12-07T00:46:37;31.83;;;16.77;;
43098;SDS011;28715;51.988;6.020;2022-12-07T00:49:02;31.70;;;17.10;;
43098;SDS011;28715;51.988;6.020;2022-12-07T00:51:28;33.97;;;16.80;;
43098;SDS011;28715;51.988;6.020;2022-12-07T00:53:54;30.67;;;16.03;;
43098;SDS011;28715;51.988;6.020;2022-12-07T00:56:26;32.60;;;17.23;;
43098;SDS011;28715;51.988;6.020;2022-12-07T00:58:53;31.90;;;17.42;;
43098;SDS011;28715;51.988;6.020;2022-12-07T01:01:21;36.40;;;16.83;;
43098;SDS011;28715;51.988;6.020;2022-12-07T01:03:47;35.67;;;17.50;;
43098;SDS011;28715;51.988;6.020;2022-12-07T01:06:14;28.17;;;16.40;;
43098;SDS011;28715;51.988;6.020;2022-12-07T01:08:41;29.45;;;16.92;;
43098;SDS011;28715;51.988;6.020;2022-12-07T01:11:07;35.07;;;17.43;;
43098;SDS011;28715;51.988;6.020;2022-12-07T01:13:37;27.63;;;15.73;;
43098;SDS011;28715;51.988;6.020;2022-12-07T01:16:04;33.27;;;18.00;;
43098;SDS011;28715;51.988;6.020;2022-12-07T01:18:30;30.92;;;16.42;;
43098;SDS011;28715;51.988;6.020;2022-12-07T01:21:02;34.83;;;17.85;;
43098;SDS011;28715;51.988;6.020;2022-12-07T01:23:30;29.67;;;17.00;;
43098;SDS011;28715;51.988;6.020;2022-12-07T01:25:58;35.97;;;18.05;;
43098;SDS011;28715;51.988;6.020;2022-12-07T01:28:25;31.77;;;16.35;;
43098;SDS011;28715;51.988;6.020;2022-12-07T01:30:57;34.33;;;18.75;;
43098;SDS011;28715;51.988;6.020;2022-12-07T01:33:31;36.30;;;18.88;;
43098;SDS011;28715;51.988;6.020;2022-12-07T01:36:06;33.40;;;18.15;;
43098;SDS011;28715;51.988;6.020;2022-12-07T01:38:42;36.92;;;18.77;;
43098;SDS011;28715;51.988;6.020;2022-12-07T01:41:08;31.00;;;17.75;;
43098;SDS011;28715;51.988;6.020;2022-12-07T01:43:35;30.90;;;17.08;;
43098;SDS011;28715;51.988;6.020;2022-12-07T01:46:02;43.53;;;21.73;;
43098;SDS011;28715;51.988;6.020;2022-12-07T01:48:33;37.78;;;20.00;;
43098;SDS011;28715;51.988;6.020;2022-12-07T01:51:04;39.45;;;19.02;;
43098;SDS011;28715;51.988;6.020;2022-12-07T01:53:33;45.13;;;21.70;;
43098;SDS011;28715;51.988;6.020;2022-12-07T01:56:00;41.33;;;21.00;;
43098;SDS011;28715;51.988;6.020;2022-12-07T01:58:26;36.93;;;20.20;;
43098;SDS011;28715;51.988;6.020;2022-12-07T02:00:53;38.45;;;19.10;;
43098;SDS011;28715;51.988;6.020;2022-12-07T02:03:20;38.03;;;20.67;;
43098;SDS011;28715;51.988;6.020;2022-12-07T02:05:50;43.03;;;18.50;;
43098;SDS011;28715;51.988;6.020;2022-12-07T02:08:17;32.28;;;18.83;;
43098;SDS011;28715;51.988;6.020;2022-12-07T02:10:43;43.22;;;21.23;;
43098;SDS011;28715;51.988;6.020;2022-12-07T02:13:13;39.57;;;19.20;;
43098;SDS011;28715;51.988;6.020;2022-12-07T02:15:57;38.78;;;19.50;;
43098;SDS011;28715;51.988;6.020;2022-12-07T02:18:36;42.63;;;20.88;;
43098;SDS011;28715;51.988;6.020;2022-12-07T02:24:15;36.50;;;18.30;;
43098;SDS011;28715;51.988;6.020;2022-12-07T02:29:47;41.40;;;19.48;;
43098;SDS011;28715;51.988;6.020;2022-12-07T02:32:37;38.70;;;18.30;;
43098;SDS011;28715;51.988;6.020;2022-12-07T02:35:44;34.78;;;18.45;;
43098;SDS011;28715;51.988;6.020;2022-12-07T02:41:04;45.15;;;19.85;;
43098;SDS011;28715;51.988;6.020;2022-12-07T02:43:35;35.72;;;19.40;;
43098;SDS011;28715;51.988;6.020;2022-12-07T02:46:12;41.85;;;20.85;;
43098;SDS011;28715;51.988;6.020;2022-12-07T02:48:41;51.58;;;21.80;;
43098;SDS011;28715;51.988;6.020;2022-12-07T02:51:30;42.67;;;21.27;;
43098;SDS011;28715;51.988;6.020;2022-12-07T02:53:56;37.58;;;19.58;;
43098;SDS011;28715;51.988;6.020;2022-12-07T03:01:43;45.35;;;20.83;;
43098;SDS011;28715;51.988;6.020;2022-12-07T03:07:07;39.80;;;17.52;;
43098;SDS011;28715;51.988;6.020;2022-12-07T03:09:45;40.67;;;18.20;;
43098;SDS011;28715;51.988;6.020;2022-12-07T03:12:29;31.40;;;17.05;;
43098;SDS011;28715;51.988;6.020;2022-12-07T03:15:08;30.55;;;15.73;;
43098;SDS011;28715;51.988;6.020;2022-12-07T03:17:39;36.27;;;16.00;;
43098;SDS011;28715;51.988;6.020;2022-12-07T03:20:08;29.45;;;14.45;;
43098;SDS011;28715;51.988;6.020;2022-12-07T03:22:35;31.42;;;14.82;;
43098;SDS011;28715;51.988;6.020;2022-12-07T03:27:41;24.23;;;12.80;;
43098;SDS011;28715;51.988;6.020;2022-12-07T03:30:13;28.25;;;11.65;;
43098;SDS011;28715;51.988;6.020;2022-12-07T03:32:57;21.48;;;10.68;;
43098;SDS011;28715;51.988;6.020;2022-12-07T03:35:25;22.10;;;11.15;;
43098;SDS011;28715;51.988;6.020;2022-12-07T03:38:14;20.25;;;10.32;;
43098;SDS011;28715;51.988;6.020;2022-12-07T03:40:55;22.25;;;10.00;;
43098;SDS011;28715;51.988;6.020;2022-12-07T03:43:32;21.38;;;10.63;;
43098;SDS011;28715;51.988;6.020;2022-12-07T03:51:21;25.25;;;9.75;;
43098;SDS011;28715;51.988;6.020;2022-12-07T03:56:49;20.10;;;9.63;;
43098;SDS011;28715;51.988;6.020;2022-12-07T03:59:17;25.88;;;10.15;;
43098;SDS011;28715;51.988;6.020;2022-12-07T04:01:43;19.05;;;9.23;;
43098;SDS011;28715;51.988;6.020;2022-12-07T04:04:09;17.80;;;9.48;;
43098;SDS011;28715;51.988;6.020;2022-12-07T04:06:35;17.40;;;9.67;;
43098;SDS011;28715;51.988;6.020;2022-12-07T04:09:00;19.20;;;9.80;;
43098;SDS011;28715;51.988;6.020;2022-12-07T04:11:26;22.73;;;9.07;;
43098;SDS011;28715;51.988;6.020;2022-12-07T04:13:51;20.70;;;9.87;;
43098;SDS011;28715;51.988;6.020;2022-12-07T04:16:35;18.52;;;9.43;;
43098;SDS011;28715;51.988;6.020;2022-12-07T04:19:01;20.93;;;8.97;;
43098;SDS011;28715;51.988;6.020;2022-12-07T04:21:26;21.60;;;9.17;;
43098;SDS011;28715;51.988;6.020;2022-12-07T04:23:52;15.67;;;9.13;;
43098;SDS011;28715;51.988;6.020;2022-12-07T04:26:17;19.67;;;9.70;;
43098;SDS011;28715;51.988;6.020;2022-12-07T04:28:43;18.83;;;8.80;;
43098;SDS011;28715;51.988;6.020;2022-12-07T04:31:08;17.63;;;9.67;;
43098;SDS011;28715;51.988;6.020;2022-12-07T04:33:35;22.43;;;9.47;;
43098;SDS011;28715;51.988;6.020;2022-12-07T04:36:00;22.92;;;10.57;;
43098;SDS011;28715;51.988;6.020;2022-12-07T04:38:26;20.10;;;8.40;;
43098;SDS011;28715;51.988;6.020;2022-12-07T04:40:51;20.53;;;9.00;;
43098;SDS011;28715;51.988;6.020;2022-12-07T04:43:17;20.33;;;8.53;;
43098;SDS011;28715;51.988;6.020;2022-12-07T04:45:49;17.57;;;8.47;;
43098;SDS011;28715;51.988;6.020;2022-12-07T04:48:16;21.75;;;9.38;;
43098;SDS011;28715;51.988;6.020;2022-12-07T04:50:41;22.97;;;9.43;;
43098;SDS011;28715;51.988;6.020;2022-12-07T04:53:07;22.40;;;8.67;;
43098;SDS011;28715;51.988;6.020;2022-12-07T04:55:32;18.90;;;8.47;;
43098;SDS011;28715;51.988;6.020;2022-12-07T04:57:58;22.13;;;8.90;;
43098;SDS011;28715;51.988;6.020;2022-12-07T05:00:23;17.40;;;8.10;;
43098;SDS011;28715;51.988;6.020;2022-12-07T05:02:49;20.43;;;9.83;;
43098;SDS011;28715;51.988;6.020;2022-12-07T05:05:14;22.10;;;10.57;;
43098;SDS011;28715;51.988;6.020;2022-12-07T05:07:40;25.33;;;10.73;;
43098;SDS011;28715;51.988;6.020;2022-12-07T05:10:06;21.80;;;11.00;;
43098;SDS011;28715;51.988;6.020;2022-12-07T05:12:32;27.58;;;11.68;;
43098;SDS011;28715;51.988;6.020;2022-12-07T05:14:57;24.93;;;10.93;;
43098;SDS011;28715;51.988;6.020;2022-12-07T05:17:23;23.23;;;10.70;;
43098;SDS011;28715;51.988;6.020;2022-12-07T05:19:48;28.67;;;12.10;;
43098;SDS011;28715;51.988;6.020;2022-12-07T05:22:14;23.87;;;11.67;;
43098;SDS011;28715;51.988;6.020;2022-12-07T05:24:40;23.60;;;11.00;;
43098;SDS011;28715;51.988;6.020;2022-12-07T05:27:05;27.17;;;11.37;;
43098;SDS011;28715;51.988;6.020;2022-12-07T05:29:31;38.17;;;13.43;;
43098;SDS011;28715;51.988;6.020;2022-12-07T05:31:57;23.90;;;10.70;;
43098;SDS011;28715;51.988;6.020;2022-12-07T05:34:22;22.13;;;10.17;;
43098;SDS011;28715;51.988;6.020;2022-12-07T05:36:48;20.07;;;9.97;;
43098;SDS011;28715;51.988;6.020;2022-12-07T05:39:15;26.20;;;10.57;;
43098;SDS011;28715;51.988;6.020;2022-12-07T05:41:40;21.20;;;9.97;;
43098;SDS011;28715;51.988;6.020;2022-12-07T05:44:25;24.30;;;10.70;;
43098;SDS011;28715;51.988;6.020;2022-12-07T05:46:50;26.13;;;12.77;;
43098;SDS011;28715;51.988;6.020;2022-12-07T05:49:16;29.53;;;12.63;;
43098;SDS011;28715;51.988;6.020;2022-12-07T05:51:41;26.00;;;11.80;;
43098;SDS011;28715;51.988;6.020;2022-12-07T05:54:07;29.30;;;11.70;;
43098;SDS011;28715;51.988;6.020;2022-12-07T05:56:32;20.63;;;8.80;;
43098;SDS011;28715;51.988;6.020;2022-12-07T05:58:58;26.37;;;8.83;;
43098;SDS011;28715;51.988;6.020;2022-12-07T06:01:42;23.85;;;9.45;;
43098;SDS011;28715;51.988;6.020;2022-12-07T06:04:08;23.20;;;9.63;;
43098;SDS011;28715;51.988;6.020;2022-12-07T06:06:33;30.50;;;9.93;;
43098;SDS011;28715;51.988;6.020;2022-12-07T06:08:59;23.70;;;10.03;;
43098;SDS011;28715;51.988;6.020;2022-12-07T06:11:24;32.93;;;11.93;;
43098;SDS011;28715;51.988;6.020;2022-12-07T06:14:08;30.92;;;12.32;;
43098;SDS011;28715;51.988;6.020;2022-12-07T06:16:34;30.30;;;12.07;;
43098;SDS011;28715;51.988;6.020;2022-12-07T06:18:59;29.53;;;13.20;;
43098;SDS011;28715;51.988;6.020;2022-12-07T06:21:25;32.90;;;12.23;;
43098;SDS011;28715;51.988;6.020;2022-12-07T06:23:51;28.83;;;12.57;;
43098;SDS011;28715;51.988;6.020;2022-12-07T06:26:17;28.80;;;12.37;;
43098;SDS011;28715;51.988;6.020;2022-12-07T06:28:43;29.80;;;12.83;;
43098;SDS011;28715;51.988;6.020;2022-12-07T06:31:08;28.70;;;11.57;;
43098;SDS011;28715;51.988;6.020;2022-12-07T06:33:34;30.20;;;11.95;;
43098;SDS011;28715;51.988;6.020;2022-12-07T06:36:00;28.43;;;11.70;;
43098;SDS011;28715;51.988;6.020;2022-12-07T06:38:25;28.50;;;11.63;;
43098;SDS011;28715;51.988;6.020;2022-12-07T06:40:51;26.57;;;12.50;;
43098;SDS011;28715;51.988;6.020;2022-12-07T06:43:16;30.77;;;12.93;;
43098;SDS011;28715;51.988;6.020;2022-12-07T06:45:42;31.60;;;12.70;;
43098;SDS011;28715;51.988;6.020;2022-12-07T06:48:08;33.33;;;14.00;;
43098;SDS011;28715;51.988;6.020;2022-12-07T06:50:33;29.00;;;13.13;;
43098;SDS011;28715;51.988;6.020;2022-12-07T06:52:59;37.33;;;15.77;;
43098;SDS011;28715;51.988;6.020;2022-12-07T06:55:24;33.43;;;15.67;;
43098;SDS011;28715;51.988;6.020;2022-12-07T06:57:50;36.33;;;17.13;;
43098;SDS011;28715;51.988;6.020;2022-12-07T07:00:16;38.07;;;17.23;;
43098;SDS011;28715;51.988;6.020;2022-12-07T07:02:41;42.70;;;18.63;;
43098;SDS011;28715;51.988;6.020;2022-12-07T07:05:07;39.67;;;17.73;;
43098;SDS011;28715;51.988;6.020;2022-12-07T07:07:33;39.72;;;18.10;;
43098;SDS011;28715;51.988;6.020;2022-12-07T07:09:58;38.40;;;17.70;;
43098;SDS011;28715;51.988;6.020;2022-12-07T07:12:24;38.40;;;17.47;;
43098;SDS011;28715;51.988;6.020;2022-12-07T07:14:50;39.10;;;17.67;;
43098;SDS011;28715;51.988;6.020;2022-12-07T07:17:15;38.13;;;16.83;;
43098;SDS011;28715;51.988;6.020;2022-12-07T07:19:41;49.13;;;18.03;;
43098;SDS011;28715;51.988;6.020;2022-12-07T07:22:06;41.83;;;17.83;;
43098;SDS011;28715;51.988;6.020;2022-12-07T07:24:32;34.20;;;16.37;;
43098;SDS011;28715;51.988;6.020;2022-12-07T07:26:57;45.63;;;19.30;;
43098;SDS011;28715;51.988;6.020;2022-12-07T07:29:23;39.43;;;17.87;;
43098;SDS011;28715;51.988;6.020;2022-12-07T07:31:48;40.77;;;19.77;;
43098;SDS011;28715;51.988;6.020;2022-12-07T07:34:14;39.00;;;18.83;;
43098;SDS011;28715;51.988;6.020;2022-12-07T07:36:40;42.23;;;18.93;;
43098;SDS011;28715;51.988;6.020;2022-12-07T07:39:05;33.70;;;16.13;;
43098;SDS011;28715;51.988;6.020;2022-12-07T07:41:31;40.33;;;16.40;;
43098;SDS011;28715;51.988;6.020;2022-12-07T07:43:56;32.07;;;15.73;;
43098;SDS011;28715;51.988;6.020;2022-12-07T07:46:22;41.13;;;16.43;;
43098;SDS011;28715;51.988;6.020;2022-12-07T07:48:48;30.63;;;15.27;;
43098;SDS011;28715;51.988;6.020;2022-12-07T07:51:14;40.67;;;15.70;;
43098;SDS011;28715;51.988;6.020;2022-12-07T07:53:39;33.77;;;15.83;;
43098;SDS011;28715;51.988;6.020;2022-12-07T07:56:05;32.17;;;14.20;;
43098;SDS011;28715;51.988;6.020;2022-12-07T07:58:30;35.43;;;14.90;;
43098;SDS011;28715;51.988;6.020;2022-12-07T08:00:56;28.37;;;13.30;;
43098;SDS011;28715;51.988;6.020;2022-12-07T08:03:21;32.57;;;13.50;;
43098;SDS011;28715;51.988;6.020;2022-12-07T08:05:47;34.87;;;14.63;;
43098;SDS011;28715;51.988;6.020;2022-12-07T08:08:13;36.57;;;16.07;;
43098;SDS011;28715;51.988;6.020;2022-12-07T08:10:38;36.90;;;14.80;;
43098;SDS011;28715;51.988;6.020;2022-12-07T08:13:04;36.57;;;15.10;;
43098;SDS011;28715;51.988;6.020;2022-12-07T08:15:36;36.58;;;14.55;;
43098;SDS011;28715;51.988;6.020;2022-12-07T08:18:03;32.17;;;12.65;;
43098;SDS011;28715;51.988;6.020;2022-12-07T08:20:32;27.97;;;12.40;;
43098;SDS011;28715;51.988;6.020;2022-12-07T08:22:59;32.10;;;14.20;;
43098;SDS011;28715;51.988;6.020;2022-12-07T08:25:24;33.30;;;14.23;;
43098;SDS011;28715;51.988;6.020;2022-12-07T08:27:50;32.03;;;19.10;;
43098;SDS011;28715;51.988;6.020;2022-12-07T08:30:16;30.98;;;15.40;;
43098;SDS011;28715;51.988;6.020;2022-12-07T08:32:43;26.60;;;12.00;;
43098;SDS011;28715;51.988;6.020;2022-12-07T08:35:10;25.98;;;11.18;;
43098;SDS011;28715;51.988;6.020;2022-12-07T08:37:36;24.20;;;11.27;;
43098;SDS011;28715;51.988;6.020;2022-12-07T08:40:03;28.15;;;10.90;;
43098;SDS011;28715;51.988;6.020;2022-12-07T08:42:29;27.02;;;11.30;;
43098;SDS011;28715;51.988;6.020;2022-12-07T08:45:03;21.75;;;9.02;;
43098;SDS011;28715;51.988;6.020;2022-12-07T08:47:30;25.75;;;8.70;;
43098;SDS011;28715;51.988;6.020;2022-12-07T08:49:56;30.13;;;12.05;;
43098;SDS011;28715;51.988;6.020;2022-12-07T08:52:28;24.77;;;9.07;;
43098;SDS011;28715;51.988;6.020;2022-12-07T08:54:56;20.98;;;8.10;;
43098;SDS011;28715;51.988;6.020;2022-12-07T08:57:24;21.65;;;10.02;;
43098;SDS011;28715;51.988;6.020;2022-12-07T08:59:50;22.95;;;9.65;;
43098;SDS011;28715;51.988;6.020;2022-12-07T09:02:15;22.23;;;8.40;;
43098;SDS011;28715;51.988;6.020;2022-12-07T09:04:41;20.43;;;7.73;;
43098;SDS011;28715;51.988;6.020;2022-12-07T09:07:06;16.70;;;7.47;;
43098;SDS011;28715;51.988;6.020;2022-12-07T09:09:32;18.20;;;8.50;;
43098;SDS011;28715;51.988;6.020;2022-12-07T09:11:58;21.90;;;9.00;;
43098;SDS011;28715;51.988;6.020;2022-12-07T09:14:23;22.37;;;8.00;;
43098;SDS011;28715;51.988;6.020;2022-12-07T09:16:49;16.60;;;6.27;;
43098;SDS011;28715;51.988;6.020;2022-12-07T09:19:15;14.33;;;5.50;;
43098;SDS011;28715;51.988;6.020;2022-12-07T09:21:40;13.73;;;4.53;;
43098;SDS011;28715;51.988;6.020;2022-12-07T09:24:06;15.07;;;4.17;;
43098;SDS011;28715;51.988;6.020;2022-12-07T09:26:32;12.37;;;4.53;;
43098;SDS011;28715;51.988;6.020;2022-12-07T09:28:58;9.30;;;3.97;;
43098;SDS011;28715;51.988;6.020;2022-12-07T09:31:23;13.33;;;3.87;;
43098;SDS011;28715;51.988;6.020;2022-12-07T09:33:56;12.07;;;3.17;;
43098;SDS011;28715;51.988;6.020;2022-12-07T09:36:26;11.30;;;3.22;;
43098;SDS011;28715;51.988;6.020;2022-12-07T09:38:52;11.48;;;3.60;;
43098;SDS011;28715;51.988;6.020;2022-12-07T09:41:18;8.77;;;3.60;;
43098;SDS011;28715;51.988;6.020;2022-12-07T09:43:45;9.70;;;3.50;;
43098;SDS011;28715;51.988;6.020;2022-12-07T09:46:13;8.70;;;3.30;;
43098;SDS011;28715;51.988;6.020;2022-12-07T09:48:41;13.13;;;4.20;;
43098;SDS011;28715;51.988;6.020;2022-12-07T09:51:14;13.93;;;4.43;;
43098;SDS011;28715;51.988;6.020;2022-12-07T09:53:43;9.57;;;3.70;;
43098;SDS011;28715;51.988;6.020;2022-12-07T09:56:11;13.27;;;3.20;;
43098;SDS011;28715;51.988;6.020;2022-12-07T09:58:39;11.88;;;2.80;;
43098;SDS011;28715;51.988;6.020;2022-12-07T10:01:09;8.20;;;2.50;;
43098;SDS011;28715;51.988;6.020;2022-12-07T10:03:43;8.85;;;3.08;;
43098;SDS011;28715;51.988;6.020;2022-12-07T10:06:21;9.27;;;2.30;;
43098;SDS011;28715;51.988;6.020;2022-12-07T10:08:46;8.57;;;2.57;;
43098;SDS011;28715;51.988;6.020;2022-12-07T10:11:12;8.40;;;1.90;;
43098;SDS011;28715;51.988;6.020;2022-12-07T10:13:51;9.20;;;2.58;;
43098;SDS011;28715;51.988;6.020;2022-12-07T10:18:56;8.30;;;2.30;;
43098;SDS011;28715;51.988;6.020;2022-12-07T10:21:25;10.27;;;3.10;;
43098;SDS011;28715;51.988;6.020;2022-12-07T10:23:59;7.75;;;2.70;;
43098;SDS011;28715;51.988;6.020;2022-12-07T10:26:30;10.23;;;2.70;;
43098;SDS011;28715;51.988;6.020;2022-12-07T10:29:02;10.40;;;2.60;;
43098;SDS011;28715;51.988;6.020;2022-12-07T10:31:40;7.65;;;2.38;;
43098;SDS011;28715;51.988;6.020;2022-12-07T10:34:14;9.35;;;2.38;;
43098;SDS011;28715;51.988;6.020;2022-12-07T10:36:54;8.48;;;2.05;;
43098;SDS011;28715;51.988;6.020;2022-12-07T10:42:42;10.18;;;2.20;;
43098;SDS011;28715;51.988;6.020;2022-12-07T10:45:08;7.75;;;2.28;;
43098;SDS011;28715;51.988;6.020;2022-12-07T10:55:46;7.07;;;2.03;;
43098;SDS011;28715;51.988;6.020;2022-12-07T11:15:04;8.00;;;1.98;;
43098;SDS011;28715;51.988;6.020;2022-12-07T11:26:08;5.30;;;1.50;;
43098;SDS011;28715;51.988;6.020;2022-12-07T11:31:42;6.50;;;1.83;;
43098;SDS011;28715;51.988;6.020;2022-12-07T11:34:19;10.43;;;2.53;;
43098;SDS011;28715;51.988;6.020;2022-12-07T11:36:57;7.80;;;2.50;;
43098;SDS011;28715;51.988;6.020;2022-12-07T11:42:04;6.57;;;1.75;;
43098;SDS011;28715;51.988;6.020;2022-12-07T11:44:39;6.28;;;1.40;;
43098;SDS011;28715;51.988;6.020;2022-12-07T11:47:47;8.87;;;1.57;;
43098;SDS011;28715;51.988;6.020;2022-12-07T11:50:21;6.80;;;1.83;;
43098;SDS011;28715;51.988;6.020;2022-12-07T11:53:01;7.40;;;1.40;;
43098;SDS011;28715;51.988;6.020;2022-12-07T12:01:24;7.05;;;1.77;;
43098;SDS011;28715;51.988;6.020;2022-12-07T12:24:37;9.57;;;2.58;;
43098;SDS011;28715;51.988;6.020;2022-12-07T12:27:08;11.38;;;2.80;;
43098;SDS011;28715;51.988;6.020;2022-12-07T12:29:40;9.35;;;2.65;;
43098;SDS011;28715;51.988;6.020;2022-12-07T12:34:59;10.48;;;3.08;;
43098;SDS011;28715;51.988;6.020;2022-12-07T12:37:46;8.43;;;2.97;;
43098;SDS011;28715;51.988;6.020;2022-12-07T12:42:44;9.20;;;2.70;;
43098;SDS011;28715;51.988;6.020;2022-12-07T12:45:18;12.35;;;4.80;;
43098;SDS011;28715;51.988;6.020;2022-12-07T12:47:55;8.50;;;3.80;;
43098;SDS011;28715;51.988;6.020;2022-12-07T12:50:31;9.45;;;3.22;;
43098;SDS011;28715;51.988;6.020;2022-12-07T13:00:45;6.05;;;2.10;;
43098;SDS011;28715;51.988;6.020;2022-12-07T13:06:17;8.77;;;1.50;;
43098;SDS011;28715;51.988;6.020;2022-12-07T13:08:42;6.93;;;1.33;;
43098;SDS011;28715;51.988;6.020;2022-12-07T13:11:18;6.07;;;1.57;;
43098;SDS011;28715;51.988;6.020;2022-12-07T13:13:56;6.68;;;1.33;;
43098;SDS011;28715;51.988;6.020;2022-12-07T13:16:57;5.13;;;1.25;;
43098;SDS011;28715;51.988;6.020;2022-12-07T13:27:43;8.30;;;2.53;;
43098;SDS011;28715;51.988;6.020;2022-12-07T13:30:31;8.43;;;2.38;;
43098;SDS011;28715;51.988;6.020;2022-12-07T13:33:03;9.07;;;1.92;;
43098;SDS011;28715;51.988;6.020;2022-12-07T13:38:04;8.48;;;2.10;;
43098;SDS011;28715;51.988;6.020;2022-12-07T13:40:41;8.27;;;2.40;;
43098;SDS011;28715;51.988;6.020;2022-12-07T13:43:14;9.03;;;2.60;;
43098;SDS011;28715;51.988;6.020;2022-12-07T13:45:41;8.13;;;1.77;;
43098;SDS011;28715;51.988;6.020;2022-12-07T13:51:12;9.75;;;2.97;;
43098;SDS011;28715;51.988;6.020;2022-12-07T13:54:00;9.20;;;2.53;;
43098;SDS011;28715;51.988;6.020;2022-12-07T13:56:34;7.82;;;2.15;;
43098;SDS011;28715;51.988;6.020;2022-12-07T13:59:01;8.98;;;2.88;;
43098;SDS011;28715;51.988;6.020;2022-12-07T14:01:28;9.43;;;3.20;;
43098;SDS011;28715;51.988;6.020;2022-12-07T14:03:56;10.60;;;3.30;;
43098;SDS011;28715;51.988;6.020;2022-12-07T14:06:57;9.57;;;3.50;;
43098;SDS011;28715;51.988;6.020;2022-12-07T14:09:26;11.20;;;3.30;;
43098;SDS011;28715;51.988;6.020;2022-12-07T14:11:55;13.60;;;3.40;;
43098;SDS011;28715;51.988;6.020;2022-12-07T14:14:23;11.70;;;3.78;;
43098;SDS011;28715;51.988;6.020;2022-12-07T14:28:09;7.70;;;2.47;;
43098;SDS011;28715;51.988;6.020;2022-12-07T14:30:51;6.80;;;2.58;;
43098;SDS011;28715;51.988;6.020;2022-12-07T14:33:17;5.53;;;1.40;;
43098;SDS011;28715;51.988;6.020;2022-12-07T14:35:44;4.63;;;0.90;;
43098;SDS011;28715;51.988;6.020;2022-12-07T14:38:09;6.03;;;0.83;;
43098;SDS011;28715;51.988;6.020;2022-12-07T14:40:35;9.13;;;1.67;;
43098;SDS011;28715;51.988;6.020;2022-12-07T14:43:02;4.67;;;2.00;;
43098;SDS011;28715;51.988;6.020;2022-12-07T14:45:29;4.82;;;1.58;;
43098;SDS011;28715;51.988;6.020;2022-12-07T14:47:55;5.60;;;1.30;;
43098;SDS011;28715;51.988;6.020;2022-12-07T14:50:21;4.20;;;1.30;;
43098;SDS011;28715;51.988;6.020;2022-12-07T14:52:57;6.78;;;1.65;;
43098;SDS011;28715;51.988;6.020;2022-12-07T14:55:26;5.97;;;1.65;;
43098;SDS011;28715;51.988;6.020;2022-12-07T14:57:53;5.85;;;1.10;;
43098;SDS011;28715;51.988;6.020;2022-12-07T15:00:22;8.57;;;1.88;;
43098;SDS011;28715;51.988;6.020;2022-12-07T15:02:49;9.02;;;2.35;;
43098;SDS011;28715;51.988;6.020;2022-12-07T15:05:15;6.22;;;1.67;;
43098;SDS011;28715;51.988;6.020;2022-12-07T15:07:41;5.43;;;1.48;;
43098;SDS011;28715;51.988;6.020;2022-12-07T15:10:13;7.13;;;1.80;;
43098;SDS011;28715;51.988;6.020;2022-12-07T15:12:45;8.00;;;1.48;;
43098;SDS011;28715;51.988;6.020;2022-12-07T15:15:11;4.53;;;1.27;;
43098;SDS011;28715;51.988;6.020;2022-12-07T15:17:37;7.13;;;1.80;;
43098;SDS011;28715;51.988;6.020;2022-12-07T15:20:02;7.27;;;1.70;;
43098;SDS011;28715;51.988;6.020;2022-12-07T15:22:28;7.43;;;2.13;;
43098;SDS011;28715;51.988;6.020;2022-12-07T15:24:56;7.57;;;2.20;;
43098;SDS011;28715;51.988;6.020;2022-12-07T15:27:22;6.47;;;2.20;;
43098;SDS011;28715;51.988;6.020;2022-12-07T15:29:50;8.83;;;2.30;;
43098;SDS011;28715;51.988;6.020;2022-12-07T15:37:57;6.75;;;2.17;;
43098;SDS011;28715;51.988;6.020;2022-12-07T15:43:38;6.45;;;3.05;;
43098;SDS011;28715;51.988;6.020;2022-12-07T15:46:22;9.18;;;3.28;;
43098;SDS011;28715;51.988;6.020;2022-12-07T15:48:47;12.50;;;3.70;;
43098;SDS011;28715;51.988;6.020;2022-12-07T15:51:13;7.83;;;2.73;;
43098;SDS011;28715;51.988;6.020;2022-12-07T15:53:39;7.50;;;2.57;;
43098;SDS011;28715;51.988;6.020;2022-12-07T15:56:07;7.57;;;2.83;;
43098;SDS011;28715;51.988;6.020;2022-12-07T15:58:33;9.93;;;3.25;;
43098;SDS011;28715;51.988;6.020;2022-12-07T16:00:59;7.63;;;3.65;;
43098;SDS011;28715;51.988;6.020;2022-12-07T16:03:26;10.33;;;4.50;;
43098;SDS011;28715;51.988;6.020;2022-12-07T16:05:52;13.88;;;5.03;;
43098;SDS011;28715;51.988;6.020;2022-12-07T16:08:18;10.80;;;4.20;;
43098;SDS011;28715;51.988;6.020;2022-12-07T16:10:44;14.15;;;5.55;;
43098;SDS011;28715;51.988;6.020;2022-12-07T16:13:10;13.83;;;5.13;;
43098;SDS011;28715;51.988;6.020;2022-12-07T16:15:40;9.45;;;5.40;;
43098;SDS011;28715;51.988;6.020;2022-12-07T16:18:12;12.68;;;5.40;;
43098;SDS011;28715;51.988;6.020;2022-12-07T16:23:43;9.73;;;4.65;;
43098;SDS011;28715;51.988;6.020;2022-12-07T16:26:27;10.77;;;5.07;;
43098;SDS011;28715;51.988;6.020;2022-12-07T16:28:53;9.65;;;5.20;;
43098;SDS011;28715;51.988;6.020;2022-12-07T16:31:21;16.02;;;5.15;;
43098;SDS011;28715;51.988;6.020;2022-12-07T16:33:48;10.15;;;4.15;;
43098;SDS011;28715;51.988;6.020;2022-12-07T16:36:14;12.80;;;5.40;;
43098;SDS011;28715;51.988;6.020;2022-12-07T16:38:50;11.77;;;4.95;;
43098;SDS011;28715;51.988;6.020;2022-12-07T16:41:20;10.20;;;5.10;;
43098;SDS011;28715;51.988;6.020;2022-12-07T16:43:46;13.17;;;5.17;;
43098;SDS011;28715;51.988;6.020;2022-12-07T16:46:11;10.27;;;4.80;;
43098;SDS011;28715;51.988;6.020;2022-12-07T16:48:38;16.15;;;5.80;;
43098;SDS011;28715;51.988;6.020;2022-12-07T16:51:05;13.00;;;5.97;;
43098;SDS011;28715;51.988;6.020;2022-12-07T16:53:33;9.82;;;5.07;;
43098;SDS011;28715;51.988;6.020;2022-12-07T16:56:02;14.68;;;5.38;;
43098;SDS011;28715;51.988;6.020;2022-12-07T16:58:36;11.10;;;5.90;;
43098;SDS011;28715;51.988;6.020;2022-12-07T17:01:15;13.23;;;5.78;;
43098;SDS011;28715;51.988;6.020;2022-12-07T17:03:43;13.75;;;7.72;;
43098;SDS011;28715;51.988;6.020;2022-12-07T17:06:22;13.80;;;8.25;;
43098;SDS011;28715;51.988;6.020;2022-12-07T17:11:16;21.42;;;7.88;;
43098;SDS011;28715;51.988;6.020;2022-12-07T17:13:47;13.30;;;7.10;;
43098;SDS011;28715;51.988;6.020;2022-12-07T17:16:32;13.88;;;8.73;;